createdAt,value
2023-02-21T00:00:51.845Z,31.86
2023-02-21T00:01:51.916Z,40.47
2023-02-21T00:02:50.966Z,47.84
2023-02-21T00:03:51.011Z,45.28
2023-02-21T00:04:52.079Z,56.02
2023-02-21T00:05:51.277Z,50.86
2023-02-21T00:06:52.184Z,43.99
2023-02-21T00:07:51.280Z,49.62
2023-02-21T00:08:51.324Z,57.46
2023-02-21T00:09:52.441Z,65.82
2023-02-21T00:10:51.443Z,58.31
2023-02-21T00:11:52.504Z,58.29
2023-02-21T00:12:52.577Z,56.88
2023-02-21T00:13:51.646Z,49.52
2023-02-21T00:14:52.700Z,47.96
2023-02-21T00:15:52.756Z,44.95
2023-02-21T00:16:52.833Z,48.74
2023-02-21T00:17:52.853Z,44.55
2023-02-21T00:18:52.887Z,42.01
2023-02-21T00:19:52.949Z,42.83
2023-02-21T00:20:53.008Z,51.87
2023-02-21T00:21:53.084Z,53.84
2023-02-21T00:22:53.144Z,53.17
2023-02-21T00:23:53.190Z,47.93
2023-02-21T00:24:53.249Z,47.00
2023-02-21T00:25:53.441Z,46.22
2023-02-21T00:26:52.357Z,40.31
2023-02-21T00:27:52.419Z,42.94
2023-02-21T00:28:53.784Z,56.46
2023-02-21T00:29:53.578Z,46.58
2023-02-21T00:30:53.724Z,48.49
2023-02-21T00:31:53.661Z,60.83
2023-02-21T00:32:53.817Z,50.54
2023-02-21T00:33:52.788Z,49.57
2023-02-21T00:34:53.847Z,39.85
2023-02-21T00:35:52.898Z,45.31
2023-02-21T00:36:53.964Z,45.58
2023-02-21T00:37:54.020Z,51.04
2023-02-21T00:38:54.097Z,47.25
2023-02-21T00:39:54.135Z,47.51
2023-02-21T00:40:54.211Z,48.66
2023-02-21T00:41:54.281Z,54.70
2023-02-21T00:42:54.330Z,65.22
2023-02-21T00:43:54.412Z,49.54
2023-02-21T00:44:53.468Z,46.00
2023-02-21T00:45:53.594Z,42.23
2023-02-21T00:46:53.590Z,43.43
2023-02-21T00:47:54.650Z,45.64
2023-02-21T00:48:54.708Z,48.05
2023-02-21T00:49:54.768Z,36.32
2023-02-21T00:50:54.836Z,41.37
2023-02-21T00:51:54.883Z,53.29
2023-02-21T00:52:54.946Z,56.84
2023-02-21T00:53:55.011Z,58.88
2023-02-21T00:54:55.070Z,58.92
2023-02-21T00:55:55.137Z,48.84
2023-02-21T00:56:55.195Z,51.40
2023-02-21T00:57:55.284Z,53.67
2023-02-21T00:58:55.325Z,61.46
2023-02-21T00:59:55.467Z,60.05
2023-02-21T01:00:55.493Z,62.44
2023-02-21T01:01:54.530Z,62.47
2023-02-21T01:02:55.567Z,75.23
2023-02-21T01:03:55.614Z,73.24
2023-02-21T01:04:54.652Z,71.26
2023-02-21T01:05:55.718Z,60.08
2023-02-21T01:06:55.777Z,56.22
2023-02-21T01:07:55.812Z,52.56
2023-02-21T01:08:55.865Z,59.29
2023-02-21T01:09:55.925Z,58.25
2023-02-21T01:10:54.971Z,66.42
2023-02-21T01:11:55.018Z,63.50
2023-02-21T01:12:56.027Z,77.08
2023-02-21T01:13:55.045Z,73.77
2023-02-21T01:14:56.097Z,65.77
2023-02-21T01:15:56.186Z,64.04
2023-02-21T01:17:01.972Z,67.27
2023-02-21T01:17:56.143Z,67.46
2023-02-21T01:18:55.120Z,62.50
2023-02-21T01:19:56.189Z,57.95
2023-02-21T01:20:55.102Z,70.14
2023-02-21T01:21:56.096Z,58.21
2023-02-21T01:22:56.093Z,57.78
2023-02-21T01:23:56.103Z,55.48
2023-02-21T01:24:55.065Z,59.91
2023-02-21T01:25:56.090Z,54.91
2023-02-21T01:26:56.054Z,57.97
2023-02-21T01:27:56.062Z,55.20
2023-02-21T01:28:56.065Z,51.77
2023-02-21T01:29:56.034Z,63.40
2023-02-21T01:30:55.053Z,55.21
2023-02-21T01:31:56.014Z,57.81
2023-02-21T01:32:56.006Z,51.46
2023-02-21T01:33:56.050Z,50.06
2023-02-21T01:34:56.016Z,50.09
2023-02-21T01:35:54.999Z,46.11
2023-02-21T01:36:55.001Z,69.13
2023-02-21T01:37:56.010Z,63.02
2023-02-21T01:38:56.777Z,65.37
2023-02-21T01:39:54.971Z,62.61
2023-02-21T01:40:54.981Z,63.53
2023-02-21T01:41:55.972Z,69.51
2023-02-21T01:42:55.933Z,58.15
2023-02-21T01:43:55.946Z,55.77
2023-02-21T01:44:55.944Z,61.98
2023-02-21T01:45:55.955Z,60.80
2023-02-21T01:46:55.913Z,58.73
2023-02-21T01:47:55.912Z,65.59
2023-02-21T01:48:55.919Z,66.24
2023-02-21T01:49:54.912Z,66.95
2023-02-21T01:50:55.883Z,70.03
2023-02-21T01:51:54.882Z,78.01
2023-02-21T01:52:54.870Z,65.15
2023-02-21T01:53:55.855Z,54.98
2023-02-21T01:54:55.847Z,56.71
2023-02-21T01:55:54.843Z,53.62
2023-02-21T01:56:55.843Z,56.17
2023-02-21T01:57:55.838Z,59.63
2023-02-21T01:58:55.845Z,54.18
2023-02-21T01:59:55.829Z,56.52
2023-02-21T02:00:54.812Z,54.62
2023-02-21T02:01:54.795Z,50.17
2023-02-21T02:02:55.788Z,58.86
2023-02-21T02:03:54.784Z,58.15
2023-02-21T02:04:55.795Z,60.06
2023-02-21T02:05:55.816Z,61.03
2023-02-21T02:06:55.773Z,51.75
2023-02-21T02:07:54.763Z,50.10
2023-02-21T02:08:55.754Z,64.75
2023-02-21T02:09:55.753Z,52.18
2023-02-21T02:10:55.725Z,52.70
2023-02-21T02:11:54.732Z,51.42
2023-02-21T02:12:54.732Z,55.11
2023-02-21T02:13:54.727Z,53.65
2023-02-21T02:14:55.717Z,55.44
2023-02-21T02:15:55.745Z,52.16
2023-02-21T02:16:55.711Z,45.46
2023-02-21T02:17:54.743Z,61.27
2023-02-21T02:18:54.754Z,54.86
2023-02-21T02:19:55.739Z,56.64
2023-02-21T02:20:54.726Z,62.33
2023-02-21T02:21:54.737Z,53.22
2023-02-21T02:22:55.722Z,48.72
2023-02-21T02:23:54.738Z,47.97
2023-02-21T02:24:55.746Z,62.23
2023-02-21T02:25:54.729Z,59.44
2023-02-21T02:26:55.721Z,59.90
2023-02-21T02:27:55.732Z,57.47
2023-02-21T02:28:55.715Z,56.34
2023-02-21T02:29:55.718Z,51.98
2023-02-21T02:30:54.824Z,59.22
2023-02-21T02:31:55.845Z,54.90
2023-02-21T02:32:54.704Z,50.00
2023-02-21T02:33:55.713Z,48.77
2023-02-21T02:34:54.687Z,47.79
2023-02-21T02:35:55.700Z,55.66
2023-02-21T02:36:54.677Z,51.92
2023-02-21T02:37:55.726Z,47.18
2023-02-21T02:38:55.678Z,37.70
2023-02-21T02:39:55.680Z,32.89
2023-02-21T02:40:55.705Z,29.26
2023-02-21T02:41:54.698Z,28.14
2023-02-21T02:42:55.709Z,38.25
2023-02-21T02:43:54.734Z,60.82
2023-02-21T02:44:55.714Z,57.51
2023-02-21T02:45:55.704Z,73.69
2023-02-21T02:46:54.698Z,68.65
2023-02-21T02:47:55.703Z,70.65
2023-02-21T02:48:55.708Z,62.93
2023-02-21T02:49:55.718Z,76.71
2023-02-21T02:50:54.742Z,84.69
2023-02-21T02:51:55.752Z,81.18
2023-02-21T02:52:55.750Z,77.78
2023-02-21T02:53:55.781Z,81.16
2023-02-21T02:54:55.760Z,86.62
2023-02-21T02:55:55.784Z,86.23
2023-02-21T02:56:55.768Z,96.84
2023-02-21T02:57:55.749Z,101.56
2023-02-21T02:58:55.749Z,89.30
2023-02-21T02:59:54.747Z,109.35
2023-02-21T03:00:55.752Z,91.60
2023-02-21T03:01:55.887Z,103.55
2023-02-21T03:02:55.804Z,126.30
2023-02-21T03:03:55.926Z,124.52
2023-02-21T03:04:55.861Z,107.51
2023-02-21T03:05:55.915Z,123.83
2023-02-21T03:06:55.975Z,101.06
2023-02-21T03:07:55.099Z,100.70
2023-02-21T03:08:56.134Z,67.33
2023-02-21T03:09:56.204Z,64.30
2023-02-21T03:10:56.247Z,95.66
2023-02-21T03:11:55.305Z,94.18
2023-02-21T03:12:56.364Z,123.19
2023-02-21T03:13:55.439Z,107.98
2023-02-21T03:14:56.474Z,84.14
2023-02-21T03:15:56.609Z,103.67
2023-02-21T03:16:55.585Z,84.02
2023-02-21T03:17:56.677Z,95.83
2023-02-21T03:18:56.739Z,78.47
2023-02-21T03:19:56.746Z,100.66
2023-02-21T03:20:56.795Z,104.45
2023-02-21T03:21:57.227Z,86.40
2023-02-21T03:22:55.910Z,74.12
2023-02-21T03:23:55.943Z,70.71
2023-02-21T03:24:57.010Z,51.16
2023-02-21T03:25:57.080Z,47.41
2023-02-21T03:26:57.106Z,43.40
2023-02-21T03:27:57.148Z,31.87
2023-02-21T03:28:57.182Z,52.41
2023-02-21T03:29:56.235Z,54.71
2023-02-21T03:30:57.343Z,74.66
2023-02-21T03:31:56.401Z,76.86
2023-02-21T03:32:57.345Z,76.88
2023-02-21T03:33:57.415Z,63.86
2023-02-21T03:34:57.457Z,42.92
2023-02-21T03:35:57.503Z,34.83
2023-02-21T03:36:57.550Z,28.33
2023-02-21T03:37:57.583Z,40.76
2023-02-21T03:38:57.643Z,31.14
2023-02-21T03:39:56.710Z,60.51
2023-02-21T03:40:56.751Z,66.70
2023-02-21T03:41:57.780Z,43.64
2023-02-21T03:42:57.810Z,26.85
2023-02-21T03:43:56.843Z,27.25
2023-02-21T03:44:57.889Z,25.22
2023-02-21T03:45:58.013Z,48.76
2023-02-21T03:46:58.007Z,44.02
2023-02-21T03:47:57.007Z,33.26
2023-02-21T03:48:58.042Z,25.00
2023-02-21T03:49:58.082Z,45.20
2023-02-21T03:50:58.152Z,38.11
2023-02-21T03:51:58.150Z,77.85
2023-02-21T03:52:58.184Z,78.83
2023-02-21T03:53:58.223Z,66.39
2023-02-21T03:54:58.258Z,45.15
2023-02-21T03:55:57.606Z,33.02
2023-02-21T03:56:58.334Z,45.69
2023-02-21T03:57:58.381Z,50.28
2023-02-21T03:58:57.466Z,38.46
2023-02-21T03:59:57.421Z,25.00
2023-02-21T04:00:58.516Z,30.16
2023-02-21T04:01:58.507Z,26.78
2023-02-21T04:02:58.537Z,25.83
2023-02-21T04:03:57.566Z,47.01
2023-02-21T04:04:57.590Z,27.07
2023-02-21T04:05:57.653Z,33.71
2023-02-21T04:06:57.658Z,25.00
2023-02-21T04:07:57.692Z,27.03
2023-02-21T04:08:58.729Z,26.69
2023-02-21T04:09:58.761Z,25.00
2023-02-21T04:10:58.825Z,31.83
2023-02-21T04:11:58.819Z,41.88
2023-02-21T04:12:58.854Z,35.62
2023-02-21T04:13:58.916Z,41.26
2023-02-21T04:14:58.909Z,34.89
2023-02-21T04:15:59.010Z,37.71
2023-02-21T04:16:59.028Z,32.06
2023-02-21T04:17:59.032Z,48.13
2023-02-21T04:18:59.056Z,34.07
2023-02-21T04:19:58.085Z,35.99
2023-02-21T04:20:59.159Z,36.43
2023-02-21T04:21:59.135Z,53.00
2023-02-21T04:23:03.574Z,38.41
2023-02-21T04:23:59.169Z,36.41
2023-02-21T04:24:59.168Z,27.43
2023-02-21T04:25:59.176Z,27.61
2023-02-21T04:26:58.128Z,23.21
2023-02-21T04:27:59.127Z,26.03
2023-02-21T04:28:59.132Z,31.40
2023-02-21T04:29:59.205Z,25.00
2023-02-21T04:30:58.115Z,28.46
2023-02-21T04:31:59.170Z,26.08
2023-02-21T04:32:59.103Z,38.95
2023-02-21T04:34:10.896Z,38.44
2023-02-21T04:34:59.088Z,33.14
2023-02-21T04:35:59.081Z,27.40
2023-02-21T04:36:59.072Z,40.70
2023-02-21T04:37:59.068Z,38.81
2023-02-21T04:38:59.052Z,55.64
2023-02-21T04:39:59.082Z,43.74
2023-02-21T04:40:59.045Z,38.43
2023-02-21T04:41:59.042Z,43.08
2023-02-21T04:42:58.066Z,32.04
2023-02-21T04:43:59.014Z,27.90
2023-02-21T04:45:00.314Z,28.94
2023-02-21T04:45:58.139Z,30.20
2023-02-21T04:46:59.111Z,34.13
2023-02-21T04:47:59.143Z,26.44
2023-02-21T04:48:58.130Z,25.81
2023-02-21T04:49:59.145Z,30.89
2023-02-21T04:51:13.389Z,50.14
2023-02-21T04:51:59.157Z,50.29
2023-02-21T04:52:59.148Z,50.65
2023-02-21T04:53:58.148Z,49.85
2023-02-21T04:54:59.132Z,50.58
2023-02-21T04:55:59.133Z,37.50
2023-02-21T04:56:59.145Z,30.39
2023-02-21T04:57:59.104Z,30.78
2023-02-21T04:58:58.112Z,28.98
2023-02-21T04:59:59.646Z,29.27
2023-02-21T05:00:59.144Z,34.02
2023-02-21T05:02:00.682Z,42.34
2023-02-21T05:02:59.078Z,43.15
2023-02-21T05:03:59.158Z,47.69
2023-02-21T05:04:59.120Z,49.57
2023-02-21T05:05:59.063Z,70.37
2023-02-21T05:06:58.062Z,67.56
2023-02-21T05:07:59.047Z,56.95
2023-02-21T05:08:59.041Z,60.43
2023-02-21T05:09:58.025Z,82.77
2023-02-21T05:10:59.014Z,62.85
2023-02-21T05:11:59.025Z,67.41
2023-02-21T05:12:58.997Z,72.51
2023-02-21T05:13:58.008Z,90.03
2023-02-21T05:14:58.990Z,71.18
2023-02-21T05:15:57.981Z,85.53
2023-02-21T05:16:57.987Z,90.26
2023-02-21T05:17:59.001Z,99.27
2023-02-21T05:18:58.954Z,100.29
2023-02-21T05:19:57.955Z,95.09
2023-02-21T05:20:58.939Z,79.47
2023-02-21T05:21:58.950Z,58.51
2023-02-21T05:23:04.784Z,54.62
2023-02-21T05:23:58.932Z,55.08
2023-02-21T05:24:58.963Z,59.29
2023-02-21T05:25:58.921Z,58.87
2023-02-21T05:26:58.906Z,62.37
2023-02-21T05:27:57.886Z,63.24
2023-02-21T05:28:58.902Z,78.90
2023-02-21T05:29:58.973Z,86.40
2023-02-21T05:31:00.697Z,95.94
2023-02-21T05:31:58.932Z,82.76
2023-02-21T05:32:58.853Z,95.26
2023-02-21T05:33:58.864Z,94.96
2023-02-21T05:34:58.856Z,77.51
2023-02-21T05:35:58.836Z,58.26
2023-02-21T05:36:58.831Z,72.63
2023-02-21T05:37:57.831Z,90.49
2023-02-21T05:38:58.892Z,59.02
2023-02-21T05:39:57.816Z,61.41
2023-02-21T05:40:57.797Z,71.63
2023-02-21T05:41:58.786Z,55.87
2023-02-21T05:42:58.786Z,77.83
2023-02-21T05:43:57.774Z,58.89
2023-02-21T05:44:57.763Z,53.19
2023-02-21T05:45:58.773Z,53.89
2023-02-21T05:46:58.756Z,52.88
2023-02-21T05:47:57.755Z,66.27
2023-02-21T05:48:58.729Z,84.25
2023-02-21T05:49:58.768Z,71.60
2023-02-21T05:50:57.719Z,52.09
2023-02-21T05:51:58.722Z,43.81
2023-02-21T05:52:57.705Z,49.34
2023-02-21T05:53:58.698Z,56.57
2023-02-21T05:54:58.697Z,40.85
2023-02-21T05:55:58.694Z,71.86
2023-02-21T05:56:58.691Z,93.75
2023-02-21T05:57:58.683Z,89.60
2023-02-21T05:58:58.655Z,88.03
2023-02-21T05:59:58.672Z,69.86
2023-02-21T06:00:58.646Z,82.95
2023-02-21T06:01:58.679Z,83.10
2023-02-21T06:02:58.630Z,71.45
2023-02-21T06:03:58.640Z,65.46
2023-02-21T06:04:58.620Z,51.84
2023-02-21T06:05:57.644Z,44.24
2023-02-21T06:06:57.613Z,44.26
2023-02-21T06:07:58.597Z,48.75
2023-02-21T06:08:58.602Z,57.67
2023-02-21T06:09:57.592Z,43.18
2023-02-21T06:10:58.567Z,34.32
2023-02-21T06:11:58.558Z,31.35
2023-02-21T06:12:57.558Z,46.34
2023-02-21T06:13:58.545Z,36.16
2023-02-21T06:14:58.545Z,32.33
2023-02-21T06:15:58.564Z,52.30
2023-02-21T06:16:58.530Z,70.47
2023-02-21T06:17:58.510Z,74.49
2023-02-21T06:18:57.509Z,91.52
2023-02-21T06:19:59.400Z,70.74
2023-02-21T06:20:57.496Z,68.69
2023-02-21T06:21:57.524Z,73.29
2023-02-21T06:22:58.479Z,82.72
2023-02-21T06:23:57.484Z,75.11
2023-02-21T06:24:58.464Z,87.33
2023-02-21T06:25:58.461Z,70.19
2023-02-21T06:26:58.469Z,75.99
2023-02-21T06:27:58.475Z,88.20
2023-02-21T06:28:58.513Z,62.70
2023-02-21T06:29:57.562Z,68.23
2023-02-21T06:30:58.612Z,60.22
2023-02-21T06:31:58.596Z,98.70
2023-02-21T06:32:57.581Z,90.47
2023-02-21T06:33:58.606Z,60.22
2023-02-21T06:34:58.630Z,44.99
2023-02-21T06:35:57.655Z,38.38
2023-02-21T06:36:58.713Z,34.69
2023-02-21T06:37:58.707Z,29.97
2023-02-21T06:38:58.693Z,32.08
2023-02-21T06:39:58.707Z,43.33
2023-02-21T06:40:58.807Z,57.54
2023-02-21T06:41:58.752Z,47.39
2023-02-21T06:42:58.750Z,41.42
2023-02-21T06:43:58.760Z,37.54
2023-02-21T06:44:58.789Z,27.77
2023-02-21T06:45:58.842Z,27.93
2023-02-21T06:46:58.824Z,51.02
2023-02-21T06:47:57.826Z,36.33
2023-02-21T06:48:58.866Z,30.68
2023-02-21T06:49:58.876Z,43.41
2023-02-21T06:50:58.924Z,56.59
2023-02-21T06:51:58.968Z,46.03
2023-02-21T06:52:57.972Z,53.90
2023-02-21T06:53:59.224Z,59.02
2023-02-21T06:54:58.011Z,40.23
2023-02-21T06:55:58.011Z,41.24
2023-02-21T06:56:58.026Z,36.05
2023-02-21T06:57:59.038Z,33.24
2023-02-21T06:58:59.041Z,51.04
2023-02-21T06:59:59.067Z,44.18
2023-02-21T07:00:59.056Z,49.96
2023-02-21T07:01:59.102Z,44.78
2023-02-21T07:02:59.457Z,53.05
2023-02-21T07:03:59.034Z,49.97
2023-02-21T07:04:59.086Z,50.98
2023-02-21T07:05:59.072Z,47.69
2023-02-21T07:06:59.108Z,50.18
2023-02-21T07:07:59.158Z,49.80
2023-02-21T07:08:58.242Z,50.13
2023-02-21T07:09:59.293Z,77.07
2023-02-21T07:10:59.310Z,68.20
2023-02-21T07:11:59.394Z,65.27
2023-02-21T07:12:59.400Z,77.73
2023-02-21T07:13:58.406Z,83.68
2023-02-21T07:14:59.428Z,81.66
2023-02-21T07:15:59.500Z,101.61
2023-02-21T07:16:59.499Z,85.47
2023-02-21T07:17:59.496Z,82.85
2023-02-21T07:18:59.524Z,96.58
2023-02-21T07:19:59.513Z,126.21
2023-02-21T07:20:58.508Z,134.19
2023-02-21T07:21:59.525Z,106.42
2023-02-21T07:22:59.534Z,103.17
2023-02-21T07:23:59.538Z,120.20
2023-02-21T07:24:59.559Z,144.13
2023-02-21T07:25:58.627Z,136.62
2023-02-21T07:26:59.609Z,147.13
2023-02-21T07:27:59.686Z,160.21
2023-02-21T07:28:58.798Z,137.75
2023-02-21T07:29:59.834Z,154.97
2023-02-21T07:30:59.898Z,145.72
2023-02-21T07:32:00.046Z,142.61
2023-02-21T07:32:59.946Z,150.65
2023-02-21T07:33:58.975Z,155.34
2023-02-21T07:35:00.032Z,154.79
2023-02-21T07:36:00.056Z,166.01
2023-02-21T07:37:00.107Z,158.53
2023-02-21T07:38:00.085Z,162.27
2023-02-21T07:39:00.118Z,143.34
2023-02-21T07:40:00.161Z,152.16
2023-02-21T07:41:00.146Z,168.12
2023-02-21T07:42:00.181Z,161.45
2023-02-21T07:42:59.192Z,162.79
2023-02-21T07:44:00.168Z,165.78
2023-02-21T07:45:00.189Z,173.23
2023-02-21T07:46:00.323Z,156.33
2023-02-21T07:47:00.156Z,150.24
2023-02-21T07:47:59.160Z,151.73
2023-02-21T07:49:00.163Z,152.65
2023-02-21T07:50:00.169Z,153.10
2023-02-21T07:51:00.192Z,149.57
2023-02-21T07:52:00.197Z,149.22
2023-02-21T07:53:00.468Z,149.04
2023-02-21T07:54:00.178Z,155.34
2023-02-21T07:55:00.187Z,151.91
2023-02-21T07:55:59.192Z,147.18
2023-02-21T07:57:00.190Z,163.18
2023-02-21T07:57:59.488Z,164.81
2023-02-21T07:59:00.201Z,163.39
2023-02-21T08:00:00.194Z,156.16
2023-02-21T08:01:00.188Z,151.39
2023-02-21T08:02:00.262Z,154.83
2023-02-21T08:03:00.218Z,150.28
2023-02-21T08:03:59.234Z,151.27
2023-02-21T08:05:00.310Z,152.90
2023-02-21T08:05:59.257Z,150.71
2023-02-21T08:07:00.244Z,157.30
2023-02-21T08:08:00.269Z,151.43
2023-02-21T08:09:00.236Z,152.22
2023-02-21T08:10:00.279Z,152.33
2023-02-21T08:11:00.299Z,153.66
2023-02-21T08:12:00.399Z,153.08
2023-02-21T08:13:00.433Z,149.18
2023-02-21T08:14:00.499Z,156.87
2023-02-21T08:15:00.542Z,148.38
2023-02-21T08:16:00.640Z,147.56
2023-02-21T08:17:00.609Z,153.43
2023-02-21T08:18:00.693Z,158.66
2023-02-21T08:19:00.724Z,148.04
2023-02-21T08:20:00.786Z,142.11
2023-02-21T08:21:00.840Z,149.12
2023-02-21T08:22:00.887Z,134.91
2023-02-21T08:22:59.926Z,130.72
2023-02-21T08:24:00.986Z,137.97
2023-02-21T08:25:01.040Z,128.42
2023-02-21T08:26:01.117Z,129.44
2023-02-21T08:27:00.172Z,119.48
2023-02-21T08:28:01.252Z,114.66
2023-02-21T08:29:01.288Z,113.18
2023-02-21T08:30:01.375Z,114.10
2023-02-21T08:31:01.407Z,111.53
2023-02-21T08:32:01.550Z,118.03
2023-02-21T08:33:01.527Z,113.20
2023-02-21T08:34:00.587Z,111.15
2023-02-21T08:35:01.660Z,108.61
2023-02-21T08:36:01.706Z,100.16
2023-02-21T08:37:01.745Z,105.72
2023-02-21T08:38:00.802Z,106.10
2023-02-21T08:39:00.840Z,99.94
2023-02-21T08:40:01.880Z,99.53
2023-02-21T08:41:01.946Z,100.83
2023-02-21T08:42:01.980Z,92.46
2023-02-21T08:43:02.012Z,98.06
2023-02-21T08:44:01.044Z,98.86
2023-02-21T08:45:02.096Z,97.05
2023-02-21T08:46:02.137Z,91.06
2023-02-21T08:47:02.199Z,90.26
2023-02-21T08:48:02.474Z,83.06
2023-02-21T08:49:01.234Z,82.47
2023-02-21T08:50:02.276Z,88.08
2023-02-21T08:51:02.329Z,87.27
2023-02-21T08:52:02.375Z,86.97
2023-02-21T08:53:02.472Z,87.25
2023-02-21T08:54:02.484Z,88.71
2023-02-21T08:55:02.513Z,88.22
2023-02-21T08:56:02.578Z,87.03
2023-02-21T08:57:02.635Z,89.79
2023-02-21T08:58:02.689Z,92.13
2023-02-21T08:59:02.747Z,89.82
2023-02-21T09:00:01.829Z,90.18
2023-02-21T09:01:01.914Z,89.99
2023-02-21T09:02:02.937Z,91.96
2023-02-21T09:03:01.954Z,91.47
2023-02-21T09:04:03.011Z,92.02
2023-02-21T09:05:02.050Z,91.89
2023-02-21T09:06:03.097Z,91.68
2023-02-21T09:07:03.149Z,92.16
2023-02-21T09:08:02.240Z,91.07
2023-02-21T09:09:03.246Z,91.07
2023-02-21T09:10:02.308Z,91.43
2023-02-21T09:11:03.493Z,93.08
2023-02-21T09:12:03.418Z,92.61
2023-02-21T09:13:03.472Z,91.58
2023-02-21T09:14:03.527Z,92.96
2023-02-21T09:15:02.575Z,89.95
2023-02-21T09:16:03.732Z,90.67
2023-02-21T09:17:03.668Z,90.01
2023-02-21T09:18:03.743Z,90.60
2023-02-21T09:19:03.777Z,91.48
2023-02-21T09:20:02.832Z,90.55
2023-02-21T09:21:03.863Z,91.05
2023-02-21T09:22:03.918Z,87.53
2023-02-21T09:23:02.995Z,90.40
2023-02-21T09:24:02.991Z,88.97
2023-02-21T09:25:03.027Z,88.97
2023-02-21T09:26:03.072Z,89.87
2023-02-21T09:27:03.178Z,87.43
2023-02-21T09:28:04.154Z,85.58
2023-02-21T09:29:04.178Z,85.33
2023-02-21T09:30:03.228Z,85.89
2023-02-21T09:31:04.263Z,82.39
2023-02-21T09:32:04.383Z,83.79
2023-02-21T09:33:03.353Z,83.29
2023-02-21T09:34:04.421Z,81.42
2023-02-21T09:35:04.475Z,84.13
2023-02-21T09:36:04.459Z,82.94
2023-02-21T09:37:04.505Z,81.90
2023-02-21T09:38:03.539Z,80.81
2023-02-21T09:39:04.553Z,80.72
2023-02-21T09:40:04.595Z,79.22
2023-02-21T09:41:03.622Z,77.31
2023-02-21T09:42:04.651Z,72.94
2023-02-21T09:43:04.763Z,70.55
2023-02-21T09:44:03.743Z,72.34
2023-02-21T09:45:04.922Z,67.13
2023-02-21T09:46:04.861Z,51.65
2023-02-21T09:47:04.809Z,63.91
2023-02-21T09:48:04.817Z,70.72
2023-02-21T09:49:04.829Z,48.68
2023-02-21T09:50:04.850Z,63.67
2023-02-21T09:51:04.839Z,56.86
2023-02-21T09:52:04.825Z,53.71
2023-02-21T09:53:04.853Z,37.08
2023-02-21T09:54:03.854Z,41.93
2023-02-21T09:55:04.865Z,35.38
2023-02-21T09:56:04.888Z,25.00
2023-02-21T09:57:04.951Z,25.00
2023-02-21T09:58:04.989Z,28.74
2023-02-21T09:59:03.950Z,62.40
2023-02-21T10:00:05.071Z,87.51
2023-02-21T10:01:05.032Z,89.02
2023-02-21T10:02:05.004Z,91.15
2023-02-21T10:03:04.009Z,90.84
2023-02-21T10:04:05.016Z,96.75
2023-02-21T10:05:05.122Z,100.34
2023-02-21T10:06:05.680Z,97.15
2023-02-21T10:07:05.066Z,102.66
2023-02-21T10:08:05.090Z,106.28
2023-02-21T10:09:04.087Z,107.17
2023-02-21T10:10:05.106Z,104.03
2023-02-21T10:11:04.183Z,102.94
2023-02-21T10:12:05.157Z,102.11
2023-02-21T10:13:05.170Z,100.76
2023-02-21T10:14:04.250Z,98.33
2023-02-21T10:15:05.215Z,94.73
2023-02-21T10:16:05.241Z,92.45
2023-02-21T10:17:05.268Z,93.00
2023-02-21T10:18:05.286Z,91.40
2023-02-21T10:19:05.308Z,86.05
2023-02-21T10:20:05.321Z,88.14
2023-02-21T10:21:05.426Z,86.27
2023-02-21T10:22:05.450Z,85.02
2023-02-21T10:23:05.408Z,85.12
2023-02-21T10:24:05.437Z,80.95
2023-02-21T10:25:05.507Z,80.95
2023-02-21T10:26:05.522Z,82.40
2023-02-21T10:27:05.554Z,84.50
2023-02-21T10:28:05.597Z,80.26
2023-02-21T10:29:04.641Z,80.65
2023-02-21T10:30:04.977Z,80.12
2023-02-21T10:31:05.888Z,76.21
2023-02-21T10:32:05.742Z,71.61
2023-02-21T10:33:05.758Z,70.06
2023-02-21T10:34:05.785Z,71.35
2023-02-21T10:35:05.833Z,67.77
2023-02-21T10:36:05.849Z,68.55
2023-02-21T10:37:05.938Z,62.68
2023-02-21T10:38:05.945Z,63.03
2023-02-21T10:39:05.954Z,61.93
2023-02-21T10:40:08.183Z,62.87
2023-02-21T10:41:05.975Z,62.88
2023-02-21T10:42:05.979Z,60.41
2023-02-21T10:43:05.967Z,59.34
2023-02-21T10:44:05.940Z,50.38
2023-02-21T10:45:04.917Z,53.37
2023-02-21T10:46:05.048Z,49.96
2023-02-21T10:47:05.908Z,44.20
2023-02-21T10:48:06.025Z,46.72
2023-02-21T10:49:05.923Z,44.89
2023-02-21T10:50:05.943Z,38.99
2023-02-21T10:51:04.893Z,47.51
2023-02-21T10:52:05.897Z,50.85
2023-02-21T10:53:06.189Z,56.29
2023-02-21T10:54:05.888Z,64.12
2023-02-21T10:55:05.854Z,69.53
2023-02-21T10:56:05.860Z,61.60
2023-02-21T10:57:05.846Z,60.66
2023-02-21T10:58:04.863Z,66.91
2023-02-21T10:59:05.863Z,66.53
2023-02-21T11:00:05.807Z,54.66
2023-02-21T11:01:05.837Z,59.70
2023-02-21T11:02:05.836Z,57.34
2023-02-21T11:03:05.816Z,59.15
2023-02-21T11:04:05.785Z,53.92
2023-02-21T11:05:05.793Z,54.06
2023-02-21T11:06:05.769Z,51.78
2023-02-21T11:07:04.814Z,48.64
2023-02-21T11:08:05.764Z,45.33
2023-02-21T11:09:05.754Z,40.63
2023-02-21T11:10:05.845Z,44.13
2023-02-21T11:11:05.859Z,37.71
2023-02-21T11:12:05.964Z,37.64
2023-02-21T11:13:05.980Z,33.87
2023-02-21T11:14:06.031Z,29.14
2023-02-21T11:15:06.092Z,30.69
2023-02-21T11:16:05.155Z,28.30
2023-02-21T11:17:06.212Z,26.21
2023-02-21T11:18:06.252Z,26.25
2023-02-21T11:19:06.312Z,25.00
2023-02-21T11:20:06.361Z,26.43
2023-02-21T11:21:06.428Z,26.21
2023-02-21T11:22:06.490Z,27.53
2023-02-21T11:23:06.559Z,26.00
2023-02-21T11:24:06.570Z,26.91
2023-02-21T11:25:06.611Z,25.11
2023-02-21T11:26:06.655Z,25.00
2023-02-21T11:27:06.674Z,27.14
2023-02-21T11:28:06.693Z,28.08
2023-02-21T11:29:06.646Z,27.27
2023-02-21T11:30:06.671Z,25.24
2023-02-21T11:31:06.723Z,25.18
2023-02-21T11:32:06.718Z,27.66
2023-02-21T11:33:06.721Z,26.79
2023-02-21T11:34:06.661Z,26.79
2023-02-21T11:35:05.661Z,28.84
2023-02-21T11:36:05.639Z,26.67
2023-02-21T11:37:06.658Z,26.17
2023-02-21T11:38:06.646Z,28.25
2023-02-21T11:39:06.681Z,26.41
2023-02-21T11:40:06.674Z,25.00
2023-02-21T11:41:05.658Z,25.73
2023-02-21T11:42:06.711Z,25.83
2023-02-21T11:43:07.034Z,27.19
2023-02-21T11:44:06.703Z,27.23
2023-02-21T11:45:05.701Z,27.19
2023-02-21T11:46:06.796Z,26.82
2023-02-21T11:47:05.728Z,25.56
2023-02-21T11:48:05.744Z,25.00
2023-02-21T11:49:07.095Z,28.62
2023-02-21T11:50:06.785Z,27.51
2023-02-21T11:51:06.872Z,25.98
2023-02-21T11:52:06.822Z,27.38
2023-02-21T11:53:06.847Z,25.73
2023-02-21T11:54:06.927Z,25.72
2023-02-21T11:55:05.883Z,25.01
2023-02-21T11:56:06.895Z,27.34
2023-02-21T11:57:06.906Z,30.60
2023-02-21T11:58:06.049Z,33.23
2023-02-21T11:59:05.981Z,29.21
2023-02-21T12:00:05.988Z,27.51
2023-02-21T12:01:05.984Z,25.18
2023-02-21T12:02:06.016Z,25.41
2023-02-21T12:03:07.021Z,27.34
2023-02-21T12:04:07.032Z,25.52
2023-02-21T12:05:07.072Z,27.11
2023-02-21T12:06:06.217Z,27.24
2023-02-21T12:07:07.095Z,27.06
2023-02-21T12:08:06.143Z,25.23
2023-02-21T12:09:06.154Z,25.00
2023-02-21T12:10:06.162Z,26.42
2023-02-21T12:11:06.175Z,27.30
2023-02-21T12:12:07.184Z,27.30
2023-02-21T12:13:06.188Z,27.03
2023-02-21T12:14:07.250Z,27.59
2023-02-21T12:15:06.248Z,28.56
2023-02-21T12:16:06.355Z,27.57
2023-02-21T12:17:07.325Z,26.75
2023-02-21T12:18:07.349Z,27.84
2023-02-21T12:19:07.386Z,28.55
2023-02-21T12:20:07.410Z,26.50
2023-02-21T12:21:07.446Z,26.67
2023-02-21T12:22:07.449Z,26.92
2023-02-21T12:23:07.463Z,26.33
2023-02-21T12:24:06.535Z,28.06
2023-02-21T12:25:06.580Z,27.46
2023-02-21T12:26:07.590Z,25.58
2023-02-21T12:27:07.621Z,26.68
2023-02-21T12:28:07.638Z,26.28
2023-02-21T12:29:07.706Z,27.82
2023-02-21T12:30:06.847Z,24.67
2023-02-21T12:31:07.779Z,29.51
2023-02-21T12:32:06.953Z,29.19
2023-02-21T12:33:07.871Z,33.26
2023-02-21T12:34:06.898Z,28.90
2023-02-21T12:35:07.918Z,29.47
2023-02-21T12:36:07.970Z,32.28
2023-02-21T12:37:07.987Z,26.08
2023-02-21T12:38:08.028Z,29.69
2023-02-21T12:39:08.079Z,26.47
2023-02-21T12:40:08.104Z,26.77
2023-02-21T12:41:07.171Z,29.87
2023-02-21T12:42:08.162Z,30.04
2023-02-21T12:43:08.219Z,29.70
2023-02-21T12:44:08.245Z,28.35
2023-02-21T12:45:08.265Z,28.92
2023-02-21T12:46:08.343Z,26.56
2023-02-21T12:47:08.361Z,27.75
2023-02-21T12:48:08.378Z,26.99
2023-02-21T12:49:08.411Z,26.03
2023-02-21T12:50:07.466Z,27.99